Time;durP1;ratioP1;P1;durP2;ratioP2;P2;SDS_P1;SDS_P2;PMS_P1;PMS_P2;Temp;Humidity;BMP_temperature;BMP_pressure;BME280_temperature;BME280_humidity;BME280_pressure;Samples;Min_cycle;Max_cycle;Signal;HPM_P1;HPM_P2
2022/05/17 00:02:04;;;;;;;13.30;5.30;;;22.10;81.10;;;;;;5075451;28;20213;-72
2022/05/17 00:04:32;;;;;;;17.30;4.93;;;22.10;81.10;;;;;;5086014;28;20209;-72
2022/05/17 00:07:00;;;;;;;11.77;5.23;;;22.10;81.10;;;;;;5059150;28;20280;-72
2022/05/17 00:09:28;;;;;;;12.47;6.10;;;22.10;81.00;;;;;;5079273;28;20608;-72
2022/05/17 00:11:56;;;;;;;9.50;5.23;;;22.10;81.20;;;;;;5080219;28;20293;-73
2022/05/17 00:14:24;;;;;;;14.33;5.80;;;22.10;81.20;;;;;;5076263;28;20200;-73
2022/05/17 00:16:51;;;;;;;13.40;6.23;;;22.10;81.20;;;;;;5084423;28;20216;-73
2022/05/17 00:19:20;;;;;;;9.77;5.40;;;22.10;81.20;;;;;;5098714;28;20332;-73
2022/05/17 00:21:48;;;;;;;17.50;6.57;;;22.00;81.10;;;;;;5081476;28;20805;-73
2022/05/17 00:24:18;;;;;;;11.20;5.40;;;22.00;81.00;;;;;;5082934;28;20253;-73
2022/05/17 00:26:45;;;;;;;12.07;5.60;;;22.00;81.00;;;;;;5091566;28;20228;-72
2022/05/17 00:29:14;;;;;;;15.67;5.63;;;22.00;81.00;;;;;;5079447;28;20209;-72
2022/05/17 00:31:41;;;;;;;14.03;6.33;;;21.90;81.10;;;;;;5090723;28;20285;-73
2022/05/17 00:34:08;;;;;;;19.07;6.33;;;21.90;81.30;;;;;;5092699;28;20209;-72
2022/05/17 00:36:36;;;;;;;13.90;6.00;;;21.90;81.50;;;;;;5069111;28;20217;-72
2022/05/17 00:39:04;;;;;;;15.60;6.93;;;21.80;81.50;;;;;;5092673;28;20231;-72
2022/05/17 00:41:31;;;;;;;13.17;5.33;;;21.80;81.50;;;;;;5097677;28;20220;-73
2022/05/17 00:46:55;;;;;;;15.43;6.30;;;21.80;81.90;;;;;;5072130;28;20296;-72
2022/05/17 00:49:50;;;;;;;12.63;5.73;;;21.70;82.10;;;;;;5074794;28;20292;-72
2022/05/17 00:52:36;;;;;;;14.27;6.77;;;21.70;82.30;;;;;;5091542;28;20203;-72
2022/05/17 00:55:34;;;;;;;10.77;6.37;;;21.70;82.40;;;;;;5077567;28;20215;-72
2022/05/17 00:58:14;;;;;;;15.70;6.10;;;21.60;82.60;;;;;;5057342;28;20645;-72
2022/05/17 01:00:50;;;;;;;16.10;6.20;;;21.60;82.50;;;;;;5075437;28;20213;-72
2022/05/17 01:03:21;;;;;;;19.53;7.03;;;21.60;82.70;;;;;;5078621;28;20197;-72
2022/05/17 01:05:53;;;;;;;16.37;7.10;;;21.40;83.00;;;;;;5084023;28;20209;-72
2022/05/17 01:08:23;;;;;;;12.30;6.17;;;21.40;83.40;;;;;;5078586;28;20270;-72
2022/05/17 01:10:50;;;;;;;12.07;6.23;;;21.30;83.60;;;;;;5084049;28;20192;-72
2022/05/17 01:16:11;;;;;;;14.17;7.00;;;21.40;83.90;;;;;;5055166;28;20638;-73
2022/05/17 01:18:41;;;;;;;13.53;5.90;;;21.30;84.30;;;;;;5075150;28;20721;-72
2022/05/17 01:21:10;;;;;;;11.77;5.43;;;21.30;83.40;;;;;;5085184;28;20255;-72
2022/05/17 01:23:38;;;;;;;10.13;6.27;;;21.30;83.40;;;;;;5088178;28;20238;-72
2022/05/17 01:26:20;;;;;;;10.67;6.20;;;21.30;83.40;;;;;;5096658;28;20308;-72
2022/05/17 01:28:48;;;;;;;12.63;6.80;;;21.30;83.60;;;;;;5058488;28;20532;-72
2022/05/17 01:31:18;;;;;;;11.43;6.53;;;21.30;83.70;;;;;;5096838;28;20209;-72
2022/05/17 01:33:45;;;;;;;11.40;5.80;;;21.20;83.90;;;;;;5059560;28;20202;-72
2022/05/17 01:36:15;;;;;;;18.37;7.10;;;21.20;84.10;;;;;;5063426;28;20256;-72
2022/05/17 01:38:45;;;;;;;12.83;7.00;;;21.20;84.10;;;;;;5072727;28;20323;-72
2022/05/17 01:41:13;;;;;;;19.00;6.23;;;21.10;84.10;;;;;;5067805;28;20202;-72
2022/05/17 01:43:40;;;;;;;14.13;6.03;;;21.10;84.20;;;;;;5059196;28;20202;-72
2022/05/17 01:46:11;;;;;;;10.30;6.17;;;21.10;84.20;;;;;;5094290;28;20206;-72
2022/05/17 01:48:39;;;;;;;17.47;6.73;;;21.10;84.30;;;;;;5097876;28;20233;-72
2022/05/17 01:51:09;;;;;;;9.97;6.33;;;21.10;84.20;;;;;;5060693;28;20198;-72
2022/05/17 01:53:37;;;;;;;12.07;6.70;;;21.10;84.20;;;;;;5068568;28;20198;-72
2022/05/17 01:56:06;;;;;;;11.43;5.63;;;21.10;84.10;;;;;;5061856;28;20216;-72
2022/05/17 01:58:33;;;;;;;14.63;6.63;;;21.10;84.20;;;;;;5103490;28;20229;-72
2022/05/17 02:01:01;;;;;;;10.17;6.03;;;21.00;84.10;;;;;;5073175;28;20231;-72
2022/05/17 02:03:29;;;;;;;9.50;6.10;;;21.00;84.20;;;;;;5093006;28;20211;-72
2022/05/17 02:05:56;;;;;;;9.23;5.83;;;21.00;84.20;;;;;;5059828;28;20197;-72
2022/05/17 02:08:23;;;;;;;15.43;5.93;;;20.90;84.20;;;;;;5069355;28;20257;-72
2022/05/17 02:10:50;;;;;;;12.87;6.60;;;20.90;84.30;;;;;;5073007;28;20228;-72
2022/05/17 02:13:18;;;;;;;8.60;5.63;;;20.80;84.30;;;;;;5061582;28;20217;-72
2022/05/17 02:15:45;;;;;;;10.57;6.80;;;20.80;84.30;;;;;;5060264;28;20217;-72
2022/05/17 02:18:12;;;;;;;10.67;7.53;;;20.80;84.50;;;;;;5061548;28;20693;-72
2022/05/17 02:20:40;;;;;;;10.60;7.90;;;20.70;84.60;;;;;;5064776;28;20536;-72
2022/05/17 02:23:07;;;;;;;11.37;6.93;;;20.70;84.60;;;;;;5096246;28;20241;-72
2022/05/17 02:25:35;;;;;;;12.43;7.37;;;20.70;84.70;;;;;;5101506;28;20202;-72
2022/05/17 02:28:08;;;;;;;13.53;8.27;;;20.70;84.80;;;;;;5063678;28;20252;-72
2022/05/17 02:30:35;;;;;;;11.83;8.67;;;20.70;84.90;;;;;;5069946;28;20219;-72
2022/05/17 02:33:04;;;;;;;12.13;8.63;;;20.60;85.00;;;;;;5082052;28;20309;-72
2022/05/17 02:35:31;;;;;;;10.83;7.47;;;20.60;85.00;;;;;;5072494;28;20206;-72
2022/05/17 02:37:58;;;;;;;11.20;8.33;;;20.50;85.20;;;;;;5062336;28;20657;-72
2022/05/17 02:40:25;;;;;;;13.40;9.07;;;20.50;85.40;;;;;;5089560;28;20204;-72
2022/05/17 02:42:52;;;;;;;12.87;7.97;;;20.50;85.50;;;;;;5065536;28;20570;-72
2022/05/17 02:45:20;;;;;;;11.53;9.33;;;20.50;85.60;;;;;;5069797;28;20651;-72
2022/05/17 02:47:48;;;;;;;11.53;8.80;;;20.40;85.70;;;;;;5065220;28;20220;-72
2022/05/17 02:50:16;;;;;;;15.63;9.30;;;20.40;85.80;;;;;;5056968;28;20209;-72
2022/05/17 02:52:43;;;;;;;13.27;9.33;;;20.40;86.00;;;;;;5063648;28;20271;-72
2022/05/17 02:55:10;;;;;;;12.37;10.07;;;20.30;86.00;;;;;;5104596;28;20624;-72
2022/05/17 02:57:38;;;;;;;14.73;9.13;;;20.40;86.10;;;;;;5068412;28;20210;-72
2022/05/17 03:00:11;;;;;;;14.70;9.73;;;20.30;86.10;;;;;;5057474;28;20567;-72
2022/05/17 03:02:39;;;;;;;14.20;8.43;;;20.30;86.20;;;;;;5062683;28;20554;-72
2022/05/17 03:05:07;;;;;;;13.73;9.80;;;20.30;86.10;;;;;;5069891;28;20286;-72
2022/05/17 03:07:34;;;;;;;14.23;9.37;;;20.30;86.10;;;;;;5066306;28;20706;-72
2022/05/17 03:10:01;;;;;;;12.67;8.97;;;20.20;86.10;;;;;;5102712;28;20642;-72
2022/05/17 03:12:28;;;;;;;12.03;10.20;;;20.20;86.20;;;;;;5067431;28;20219;-72
2022/05/17 03:14:55;;;;;;;11.03;9.83;;;20.20;86.20;;;;;;5060625;28;20287;-72
2022/05/17 03:17:23;;;;;;;13.87;9.53;;;20.20;86.20;;;;;;5071514;28;20227;-72
2022/05/17 03:19:52;;;;;;;11.60;9.53;;;20.10;86.20;;;;;;5057977;28;20221;-72
2022/05/17 03:22:19;;;;;;;13.50;8.87;;;20.10;86.20;;;;;;5075517;28;20233;-72
2022/05/17 03:24:46;;;;;;;9.80;8.80;;;20.10;86.10;;;;;;5081090;28;20207;-72
2022/05/17 03:27:33;;;;;;;14.60;8.67;;;20.10;86.20;;;;;;5084756;28;20633;-72
2022/05/17 03:30:00;;;;;;;10.47;8.40;;;20.10;85.90;;;;;;5089143;28;20609;-72
2022/05/17 03:32:27;;;;;;;11.93;9.10;;;20.00;85.80;;;;;;5085468;28;20620;-72
2022/05/17 03:34:54;;;;;;;14.57;9.23;;;20.00;85.70;;;;;;5078887;28;20301;-72
2022/05/17 03:37:22;;;;;;;12.00;9.50;;;19.90;85.70;;;;;;5060009;28;20610;-72
2022/05/17 03:39:51;;;;;;;13.23;10.07;;;19.90;85.90;;;;;;5088070;28;20229;-72
2022/05/17 03:42:19;;;;;;;12.80;10.87;;;19.90;86.30;;;;;;5089590;28;20210;-72
2022/05/17 03:44:47;;;;;;;16.70;11.67;;;19.80;86.30;;;;;;5089483;28;20588;-72
2022/05/17 03:47:14;;;;;;;20.30;12.40;;;19.80;86.50;;;;;;5089177;28;20203;-72
2022/05/17 03:49:44;;;;;;;12.93;10.13;;;19.80;87.30;;;;;;5083372;28;20300;-71
2022/05/17 03:52:11;;;;;;;16.73;11.23;;;19.80;86.80;;;;;;5080471;28;20194;-71
2022/05/17 03:54:39;;;;;;;14.33;12.07;;;19.80;87.00;;;;;;5090840;28;20204;-72
2022/05/17 03:57:06;;;;;;;12.07;10.80;;;19.80;87.20;;;;;;5094915;28;20208;-72
2022/05/17 03:59:34;;;;;;;12.93;11.43;;;19.80;87.30;;;;;;5086346;28;20229;-72
2022/05/17 04:02:02;;;;;;;15.13;12.40;;;19.80;87.30;;;;;;5080265;28;20212;-72
2022/05/17 04:04:30;;;;;;;15.17;11.57;;;19.80;87.30;;;;;;5089292;28;20215;-72
2022/05/17 04:06:57;;;;;;;15.07;12.17;;;19.80;87.50;;;;;;5093735;28;20203;-71
2022/05/17 04:09:24;;;;;;;13.37;12.03;;;19.80;87.60;;;;;;5079320;28;20621;-71
2022/05/17 04:11:56;;;;;;;15.83;11.47;;;19.80;87.60;;;;;;5111363;28;20195;-71
2022/05/17 04:14:23;;;;;;;13.97;11.53;;;19.80;87.50;;;;;;5078109;28;20220;-72
2022/05/17 04:16:51;;;;;;;14.60;11.43;;;19.80;87.30;;;;;;5108092;28;20208;-72
2022/05/17 04:19:18;;;;;;;15.43;12.50;;;19.90;87.10;;;;;;5104140;28;20235;-72
2022/05/17 04:21:47;;;;;;;17.43;13.50;;;19.90;87.10;;;;;;5098894;28;20292;-72
2022/05/17 04:24:15;;;;;;;16.27;14.60;;;19.90;87.20;;;;;;5086886;28;20582;-71
2022/05/17 04:26:42;;;;;;;16.13;12.10;;;19.90;87.10;;;;;;5064711;28;20201;-72
2022/05/17 04:29:10;;;;;;;14.97;11.40;;;20.00;87.00;;;;;;5101692;28;20229;-72
2022/05/17 04:31:37;;;;;;;16.03;13.23;;;20.00;86.70;;;;;;5078219;28;20527;-72
2022/05/17 04:34:04;;;;;;;17.37;13.60;;;20.10;86.50;;;;;;5044325;28;20296;-72
2022/05/17 04:36:33;;;;;;;14.40;13.00;;;20.10;86.50;;;;;;5103282;28;20218;-71
2022/05/17 04:39:03;;;;;;;15.23;12.27;;;20.10;86.80;;;;;;5085342;28;20229;-71
2022/05/17 04:41:30;;;;;;;18.30;12.73;;;20.20;86.90;;;;;;5089924;28;20192;-71
2022/05/17 04:43:57;;;;;;;17.90;13.20;;;20.20;86.80;;;;;;5073045;28;20706;-71
2022/05/17 04:46:24;;;;;;;17.43;13.57;;;20.30;86.90;;;;;;5083392;28;20208;-72
2022/05/17 04:48:52;;;;;;;14.90;12.77;;;20.40;87.10;;;;;;5073143;28;20209;-72
2022/05/17 04:51:19;;;;;;;14.60;12.77;;;20.40;87.20;;;;;;5088318;28;20211;-71
2022/05/17 04:53:46;;;;;;;17.03;11.97;;;20.50;87.20;;;;;;5087745;28;20561;-71
2022/05/17 04:56:16;;;;;;;13.47;12.00;;;20.60;87.20;;;;;;5075596;28;20212;-71
2022/05/17 04:58:46;;;;;;;19.33;13.10;;;20.60;87.00;;;;;;5087963;28;20213;-71
2022/05/17 05:01:13;;;;;;;16.83;13.63;;;20.70;86.90;;;;;;5064873;28;20630;-71
2022/05/17 05:03:40;;;;;;;17.60;12.73;;;20.80;86.70;;;;;;5096611;28;20220;-71
2022/05/17 05:06:08;;;;;;;15.10;12.30;;;21.00;86.40;;;;;;5089861;28;20763;-71
2022/05/17 05:08:35;;;;;;;14.07;12.30;;;21.00;86.00;;;;;;5092569;28;20614;-71
2022/05/17 05:11:03;;;;;;;14.30;11.90;;;21.20;85.70;;;;;;5090276;28;20680;-71
2022/05/17 05:13:30;;;;;;;16.27;12.90;;;21.30;85.40;;;;;;5076332;28;20725;-71
2022/05/17 05:15:57;;;;;;;14.33;12.70;;;21.40;85.10;;;;;;5086639;28;20200;-71
2022/05/17 05:18:25;;;;;;;17.07;12.23;;;21.50;84.80;;;;;;5109589;28;20248;-71
2022/05/17 05:21:06;;;;;;;15.57;11.23;;;21.50;84.70;;;;;;5100817;28;20239;-71
2022/05/17 05:23:33;;;;;;;15.70;11.33;;;21.70;84.60;;;;;;5080417;28;20233;-72
2022/05/17 05:26:01;;;;;;;14.23;12.17;;;21.80;84.10;;;;;;5101538;28;20283;-72
2022/05/17 05:28:31;;;;;;;17.10;11.63;;;22.00;84.20;;;;;;5098261;28;20203;-72
2022/05/17 05:30:58;;;;;;;18.13;12.00;;;22.20;83.10;;;;;;5066050;28;20201;-72
2022/05/17 05:33:29;;;;;;;12.90;10.80;;;22.30;82.70;;;;;;5075982;28;20217;-71
2022/05/17 05:35:57;;;;;;;21.83;13.07;;;22.40;82.40;;;;;;5089263;28;20209;-71
2022/05/17 05:38:27;;;;;;;17.50;12.23;;;22.60;82.30;;;;;;5060075;28;20213;-71
2022/05/17 05:40:54;;;;;;;15.80;12.77;;;22.70;81.90;;;;;;5075078;28;20233;-72
2022/05/17 05:43:22;;;;;;;17.03;12.10;;;22.80;81.50;;;;;;5075676;28;20243;-72
2022/05/17 05:45:49;;;;;;;14.00;11.30;;;22.80;81.30;;;;;;5096176;28;20233;-72
2022/05/17 05:48:16;;;;;;;14.20;11.73;;;22.90;81.40;;;;;;5091803;28;20202;-72
2022/05/17 05:50:44;;;;;;;15.10;11.77;;;23.00;81.10;;;;;;5085307;28;20201;-72
2022/05/17 05:53:12;;;;;;;16.70;10.70;;;23.10;80.90;;;;;;5083842;28;20210;-72
2022/05/17 05:55:40;;;;;;;12.80;10.30;;;23.20;80.60;;;;;;5083177;28;20296;-72
2022/05/17 05:58:08;;;;;;;14.23;10.53;;;23.30;80.40;;;;;;5074527;28;20204;-72
2022/05/17 06:00:36;;;;;;;18.53;10.67;;;23.50;80.20;;;;;;5068458;28;20205;-72
2022/05/17 06:03:04;;;;;;;12.43;10.77;;;23.60;79.90;;;;;;5089950;28;20608;-72
2022/05/17 06:05:32;;;;;;;16.67;10.43;;;23.70;79.30;;;;;;5074983;28;20198;-72
2022/05/17 06:07:59;;;;;;;14.73;9.63;;;23.90;79.50;;;;;;5084719;28;20303;-72
2022/05/17 06:10:26;;;;;;;17.10;9.70;;;24.00;78.40;;;;;;5083739;28;20217;-72
2022/05/17 06:12:54;;;;;;;11.63;9.67;;;24.10;77.90;;;;;;5105194;28;20700;-72
2022/05/17 06:15:21;;;;;;;13.97;9.93;;;24.20;76.60;;;;;;5076314;28;20645;-71
2022/05/17 06:17:49;;;;;;;15.10;8.70;;;24.30;75.70;;;;;;5089251;28;20212;-71
2022/05/17 06:20:17;;;;;;;14.23;9.20;;;24.50;75.10;;;;;;5105010;28;20626;-71
2022/05/17 06:22:44;;;;;;;12.23;8.90;;;24.60;74.50;;;;;;5079091;28;20566;-71
2022/05/17 06:25:12;;;;;;;14.30;9.70;;;24.60;74.20;;;;;;5079465;28;20536;-71
2022/05/17 06:27:39;;;;;;;11.40;9.03;;;24.80;73.80;;;;;;5079713;28;20199;-71
2022/05/17 06:30:07;;;;;;;11.77;8.50;;;24.90;72.70;;;;;;5061252;28;20208;-71
2022/05/17 06:32:34;;;;;;;12.27;10.23;;;25.00;72.00;;;;;;5088921;28;20213;-71
2022/05/17 06:35:01;;;;;;;12.10;9.03;;;25.10;71.80;;;;;;5090431;28;20205;-72
2022/05/17 06:37:28;;;;;;;13.87;8.70;;;25.20;71.50;;;;;;5096987;28;20222;-72
2022/05/17 06:39:56;;;;;;;13.03;10.03;;;25.30;70.80;;;;;;5077992;28;20308;-71
2022/05/17 06:42:23;;;;;;;12.60;9.20;;;25.40;69.90;;;;;;5086184;28;20206;-71
2022/05/17 06:44:50;;;;;;;13.87;9.60;;;25.50;69.80;;;;;;5097836;28;20241;-71
2022/05/17 06:47:18;;;;;;;15.13;9.93;;;25.70;69.00;;;;;;5085452;28;20265;-71
2022/05/17 06:49:45;;;;;;;13.40;9.70;;;25.80;68.50;;;;;;5083180;28;20240;-71
2022/05/17 06:52:13;;;;;;;10.43;9.10;;;25.80;67.90;;;;;;5072794;28;20239;-71
2022/05/17 06:54:41;;;;;;;12.70;9.13;;;25.90;67.80;;;;;;5076286;28;20207;-71
2022/05/17 06:57:11;;;;;;;14.43;9.80;;;26.00;66.70;;;;;;5083229;28;20203;-72
2022/05/17 06:59:40;;;;;;;12.67;10.57;;;26.00;66.40;;;;;;5075176;28;20219;-72
2022/05/17 07:02:08;;;;;;;22.60;10.53;;;26.10;66.40;;;;;;5081974;28;20198;-72
2022/05/17 07:04:36;;;;;;;14.50;10.33;;;26.10;65.30;;;;;;5090988;28;20193;-72
2022/05/17 07:07:04;;;;;;;17.60;10.57;;;26.10;66.20;;;;;;5082077;28;20638;-72
2022/05/17 07:09:32;;;;;;;17.07;10.27;;;26.20;66.20;;;;;;5075186;28;20205;-72
2022/05/17 07:14:50;;;;;;;12.90;10.67;;;26.40;65.80;;;;;;5085126;28;20203;-72
2022/05/17 07:17:21;;;;;;;14.37;10.07;;;26.50;65.30;;;;;;5081283;28;20416;-72
2022/05/17 07:19:49;;;;;;;12.83;10.30;;;26.60;65.20;;;;;;5090233;28;20218;-72
2022/05/17 07:22:16;;;;;;;14.67;11.00;;;26.70;65.10;;;;;;5071320;28;20205;-72
2022/05/17 07:24:46;;;;;;;15.33;10.90;;;26.80;64.60;;;;;;5084922;28;20338;-72
2022/05/17 07:27:14;;;;;;;14.87;10.43;;;26.90;64.10;;;;;;5052736;28;20198;-72
2022/05/17 07:29:48;;;;;;;20.67;10.90;;;27.00;63.90;;;;;;5055097;28;20198;-72
2022/05/17 07:32:16;;;;;;;13.80;10.20;;;27.20;64.30;;;;;;5063548;28;20216;-72
2022/05/17 07:34:43;;;;;;;13.30;10.23;;;27.30;64.20;;;;;;5068152;28;20297;-72
2022/05/17 07:37:10;;;;;;;17.20;11.17;;;27.40;64.30;;;;;;5061185;28;20205;-72
2022/05/17 07:39:37;;;;;;;15.57;11.67;;;27.50;63.50;;;;;;5087907;28;20257;-72
2022/05/17 07:42:08;;;;;;;15.67;11.27;;;27.60;62.60;;;;;;5061922;28;20208;-72
2022/05/17 07:44:36;;;;;;;19.17;12.03;;;27.70;61.90;;;;;;5055472;28;20216;-72
2022/05/17 07:47:05;;;;;;;13.60;10.80;;;27.60;60.90;;;;;;5057880;28;20210;-72
2022/05/17 07:49:38;;;;;;;14.20;10.87;;;27.60;61.70;;;;;;5056982;28;20702;-72
2022/05/17 07:52:06;;;;;;;13.57;11.27;;;27.60;62.40;;;;;;5062127;28;20225;-72
2022/05/17 07:54:37;;;;;;;17.83;11.17;;;27.70;62.10;;;;;;5056024;28;20707;-72
2022/05/17 07:57:05;;;;;;;17.93;12.20;;;27.80;62.20;;;;;;5058442;28;20209;-72
2022/05/17 07:59:33;;;;;;;14.73;10.90;;;27.90;61.40;;;;;;5055824;28;20549;-72
2022/05/17 08:02:01;;;;;;;21.00;11.83;;;28.00;61.40;;;;;;5069877;28;20217;-72
2022/05/17 08:04:31;;;;;;;14.70;11.30;;;28.10;60.90;;;;;;5068176;28;20517;-72
2022/05/17 08:06:58;;;;;;;13.57;10.10;;;28.20;60.40;;;;;;5059316;28;20193;-72
2022/05/17 08:09:26;;;;;;;30.97;11.70;;;28.30;60.90;;;;;;5066774;28;20639;-72
2022/05/17 08:11:54;;;;;;;13.97;10.40;;;28.40;60.50;;;;;;5063892;28;20201;-72
2022/05/17 08:14:22;;;;;;;14.67;11.20;;;28.40;60.30;;;;;;5058109;28;20599;-72
2022/05/17 08:16:49;;;;;;;18.53;12.20;;;28.50;60.50;;;;;;5057686;28;20283;-72
2022/05/17 08:19:17;;;;;;;15.77;11.33;;;28.50;60.40;;;;;;5054063;28;20305;-72
2022/05/17 08:21:44;;;;;;;16.13;11.83;;;28.60;60.20;;;;;;5067280;28;20202;-72
2022/05/17 08:24:12;;;;;;;16.13;11.50;;;28.70;59.30;;;;;;5080730;28;20486;-72
2022/05/17 08:29:24;;;;;;;19.60;10.53;;;28.60;60.40;;;;;;5085959;28;20231;-72
2022/05/17 08:34:37;;;;;;;31.47;24.83;;;28.70;61.10;;;;;;5077917;28;20201;-72
2022/05/17 08:37:04;;;;;;;15.93;11.40;;;28.70;60.40;;;;;;5074261;28;20217;-72
2022/05/17 08:39:31;;;;;;;27.17;20.53;;;28.80;61.00;;;;;;5071615;28;20419;-73
2022/05/17 08:42:05;;;;;;;51.20;39.17;;;28.90;60.60;;;;;;5074228;28;20249;-72
2022/05/17 08:44:56;;;;;;;40.03;29.50;;;29.00;60.10;;;;;;5088133;28;20212;-72
2022/05/17 08:47:46;;;;;;;70.43;58.60;;;29.10;60.30;;;;;;5083461;28;20209;-72
2022/05/17 08:50:34;;;;;;;19.00;14.10;;;29.10;59.00;;;;;;5078298;28;20201;-72
2022/05/17 08:53:03;;;;;;;19.20;13.93;;;29.10;57.90;;;;;;5065945;28;20209;-72
2022/05/17 08:55:36;;;;;;;15.30;12.80;;;29.00;57.70;;;;;;5094542;28;20625;-72
2022/05/17 08:58:12;;;;;;;15.13;12.97;;;28.90;59.10;;;;;;5096344;28;20198;-72
2022/05/17 09:00:45;;;;;;;20.90;14.53;;;28.80;59.90;;;;;;5078913;28;20233;-72
2022/05/17 09:03:38;;;;;;;26.83;17.97;;;28.90;59.90;;;;;;5074962;28;20215;-72
2022/05/17 09:06:29;;;;;;;17.63;12.07;;;29.10;60.10;;;;;;5091003;28;20206;-72
2022/05/17 09:09:02;;;;;;;15.00;12.17;;;29.30;59.50;;;;;;5084282;28;20220;-71
2022/05/17 09:11:56;;;;;;;43.63;23.60;;;29.60;58.40;;;;;;5078396;28;20208;-72
2022/05/17 09:14:26;;;;;;;17.30;14.33;;;29.70;58.10;;;;;;5086632;28;20205;-71
2022/05/17 09:17:07;;;;;;;33.70;18.73;;;29.80;58.20;;;;;;5078709;28;20197;-71
2022/05/17 09:19:36;;;;;;;21.10;12.30;;;29.90;57.90;;;;;;5074683;28;20206;-71
2022/05/17 09:22:06;;;;;;;20.17;14.03;;;30.00;58.40;;;;;;5078653;28;20908;-71
2022/05/17 09:24:40;;;;;;;21.53;12.73;;;30.10;57.30;;;;;;5085229;28;20326;-71
2022/05/17 09:27:41;;;;;;;12.40;11.10;;;30.20;57.50;;;;;;5073566;28;20232;-71
2022/05/17 09:30:23;;;;;;;14.57;11.40;;;30.30;57.60;;;;;;5048850;28;20320;-70
2022/05/17 09:33:09;;;;;;;18.37;12.13;;;30.40;56.60;;;;;;5089523;28;20304;-70
2022/05/17 09:35:58;;;;;;;19.33;12.33;;;30.50;56.30;;;;;;5080979;28;20197;-70
2022/05/17 09:38:34;;;;;;;16.60;10.83;;;30.70;55.30;;;;;;5085685;28;20327;-70
2022/05/17 09:41:07;;;;;;;13.60;11.83;;;30.70;55.50;;;;;;5078099;28;20233;-71
2022/05/17 09:43:50;;;;;;;15.87;12.10;;;30.70;54.00;;;;;;5070725;28;20547;-70
2022/05/17 09:46:48;;;;;;;14.90;10.33;;;30.70;55.40;;;;;;5079363;28;20205;-70
2022/05/17 09:52:33;;;;;;;17.30;10.33;;;30.70;54.20;;;;;;5094424;28;20650;-70
2022/05/17 09:55:12;;;;;;;11.97;9.17;;;30.60;55.80;;;;;;5066179;28;20224;-71
2022/05/17 09:57:52;;;;;;;11.43;9.47;;;30.60;55.90;;;;;;5092582;28;20686;-71
2022/05/17 10:00:40;;;;;;;16.97;9.83;;;30.70;55.70;;;;;;5085143;28;20223;-71
2022/05/17 10:03:29;;;;;;;11.07;8.57;;;30.80;55.00;;;;;;5077501;28;20198;-71
2022/05/17 10:06:00;;;;;;;12.90;8.53;;;31.00;55.10;;;;;;5080293;28;20212;-70
2022/05/17 10:08:39;;;;;;;10.03;8.23;;;31.10;55.40;;;;;;5078593;28;20221;-71
2022/05/17 10:11:17;;;;;;;13.70;9.07;;;31.30;55.00;;;;;;5079276;28;20278;-71
2022/05/17 10:14:10;;;;;;;15.03;9.10;;;31.40;53.40;;;;;;5078688;28;20232;-72
2022/05/17 10:16:40;;;;;;;15.07;9.77;;;31.40;54.00;;;;;;5093384;28;20201;-71
2022/05/17 10:19:57;;;;;;;12.17;9.13;;;31.50;53.40;;;;;;5061697;28;20718;-72
2022/05/17 10:22:37;;;;;;;13.57;8.40;;;31.60;53.50;;;;;;5056033;28;20323;-71
2022/05/17 10:25:19;;;;;;;15.67;9.30;;;31.70;53.90;;;;;;5083486;28;20197;-71
2022/05/17 10:27:54;;;;;;;17.33;9.73;;;31.90;53.90;;;;;;5093410;28;20244;-71
2022/05/17 10:30:50;;;;;;;14.03;8.23;;;32.00;53.00;;;;;;5084147;28;20190;-71
2022/05/17 10:33:46;;;;;;;16.07;8.67;;;32.00;51.10;;;;;;5086219;28;20309;-71
2022/05/17 10:36:30;;;;;;;13.93;8.30;;;31.90;52.00;;;;;;5083187;28;20219;-72
2022/05/17 10:39:17;;;;;;;8.73;7.83;;;31.90;52.30;;;;;;5087769;28;20533;-68
2022/05/17 10:41:44;;;;;;;11.13;6.97;;;31.90;52.20;;;;;;5082668;28;20264;-68
2022/05/17 10:44:20;;;;;;;10.67;7.33;;;32.00;52.70;;;;;;5086613;28;20457;-68
2022/05/17 10:46:55;;;;;;;11.47;7.07;;;32.10;52.30;;;;;;5078425;28;20194;-68
2022/05/17 10:50:09;;;;;;;14.17;8.13;;;32.20;52.30;;;;;;5096583;28;20193;-68
2022/05/17 10:52:53;;;;;;;10.80;7.47;;;32.30;50.00;;;;;;5078980;28;20213;-68
2022/05/17 10:55:42;;;;;;;7.50;6.80;;;32.20;49.80;;;;;;5085447;28;20681;-68
2022/05/17 10:58:43;;;;;;;11.23;6.93;;;32.10;50.70;;;;;;5076189;28;20220;-68
2022/05/17 11:01:42;;;;;;;7.60;6.90;;;32.10;50.60;;;;;;5073835;28;20241;-68
2022/05/17 11:04:28;;;;;;;6.73;6.00;;;32.20;50.00;;;;;;5106747;28;20240;-68
2022/05/17 11:06:55;;;;;;;9.20;6.27;;;32.20;49.40;;;;;;5087840;28;20627;-68
2022/05/17 11:09:49;;;;;;;10.43;6.63;;;32.40;49.20;;;;;;5090946;28;20561;-68
2022/05/17 11:12:19;;;;;;;8.57;7.00;;;32.40;48.90;;;;;;5088920;28;20211;-68
2022/05/17 11:14:59;;;;;;;8.60;6.07;;;32.60;48.80;;;;;;5087818;28;20201;-68
2022/05/17 11:17:27;;;;;;;11.57;7.33;;;32.70;49.50;;;;;;5099659;28;20213;-68
2022/05/17 11:20:06;;;;;;;11.17;6.90;;;32.80;48.70;;;;;;5104215;28;20244;-68
2022/05/17 11:22:39;;;;;;;7.73;6.00;;;32.80;49.50;;;;;;5078621;28;20209;-68
2022/05/17 11:25:16;;;;;;;6.40;5.60;;;32.90;48.60;;;;;;5078660;28;20209;-68
2022/05/17 11:28:14;;;;;;;6.47;5.93;;;33.00;49.00;;;;;;5089225;28;20207;-68
2022/05/17 11:31:04;;;;;;;11.30;7.00;;;33.10;48.70;;;;;;5087283;28;20265;-68
2022/05/17 11:33:34;;;;;;;10.77;6.53;;;33.20;48.80;;;;;;5091295;28;20210;-68
2022/05/17 11:36:12;;;;;;;10.77;6.40;;;33.30;48.60;;;;;;5081919;28;20516;-68
2022/05/17 11:38:52;;;;;;;6.83;6.07;;;33.30;48.70;;;;;;5090991;28;20205;-68
2022/05/17 11:41:33;;;;;;;9.10;5.90;;;33.30;48.60;;;;;;5082136;28;20259;-68
2022/05/17 11:44:26;;;;;;;8.70;5.77;;;33.40;48.40;;;;;;5076061;28;20256;-68
2022/05/17 11:46:58;;;;;;;10.33;5.30;;;33.40;48.90;;;;;;5098424;28;20205;-68
2022/05/17 11:49:32;;;;;;;12.57;6.87;;;33.50;49.40;;;;;;5083054;28;20466;-68
2022/05/17 11:51:59;;;;;;;10.73;6.30;;;33.60;48.00;;;;;;5064364;28;20218;-68
2022/05/17 11:54:47;;;;;;;7.33;6.60;;;33.60;48.20;;;;;;5075558;28;20263;-68
2022/05/17 11:57:17;;;;;;;9.33;6.00;;;33.50;46.80;;;;;;5095989;28;20210;-68
2022/05/17 11:59:54;;;;;;;9.00;6.10;;;33.40;47.10;;;;;;5075346;28;20206;-68
2022/05/17 12:02:41;;;;;;;10.57;6.13;;;33.40;46.20;;;;;;5066632;28;20618;-67
2022/05/17 12:05:37;;;;;;;6.80;5.97;;;33.20;46.90;;;;;;5089254;28;20279;-67
2022/05/17 12:08:39;;;;;;;7.43;5.47;;;33.10;47.80;;;;;;5057140;28;20275;-67
2022/05/17 12:11:12;;;;;;;6.43;5.03;;;33.20;48.60;;;;;;5049255;28;20206;-67
2022/05/17 12:13:54;;;;;;;5.80;5.10;;;33.20;49.00;;;;;;5108089;28;20236;-67
2022/05/17 12:16:27;;;;;;;5.23;4.63;;;33.20;46.10;;;;;;5088319;28;20197;-67
2022/05/17 12:19:01;;;;;;;9.33;5.10;;;33.30;47.20;;;;;;5079528;28;20197;-67
2022/05/17 12:21:57;;;;;;;12.37;5.73;;;33.30;46.30;;;;;;5082076;28;20259;-67
2022/05/17 12:24:50;;;;;;;10.70;5.73;;;33.20;45.70;;;;;;5065144;28;20241;-67
2022/05/17 12:27:24;;;;;;;8.60;5.70;;;33.20;45.70;;;;;;5082494;28;20201;-67
2022/05/17 12:33:03;;;;;;;6.40;5.10;;;33.20;47.00;;;;;;5086987;28;20205;-67
2022/05/17 12:35:30;;;;;;;7.03;5.70;;;33.20;46.60;;;;;;5093401;28;20212;-67
2022/05/17 12:37:57;;;;;;;9.80;4.87;;;33.20;45.40;;;;;;5081308;28;20209;-67
2022/05/17 12:43:28;;;;;;;10.20;5.03;;;33.20;47.60;;;;;;5087503;28;20224;-67
2022/05/17 12:46:11;;;;;;;7.80;4.90;;;33.20;44.90;;;;;;5081934;28;20851;-67
2022/05/17 12:48:38;;;;;;;6.73;4.90;;;33.10;44.00;;;;;;5070489;28;20201;-68
2022/05/17 12:51:09;;;;;;;6.57;4.70;;;33.00;45.20;;;;;;5079155;28;20206;-68
2022/05/17 12:53:44;;;;;;;7.63;4.73;;;33.00;44.90;;;;;;5075779;28;20776;-68
2022/05/17 12:56:20;;;;;;;8.73;4.37;;;33.00;44.90;;;;;;5078111;28;20198;-68
2022/05/17 12:58:53;;;;;;;6.57;5.10;;;33.00;46.10;;;;;;5086947;28;20288;-67
2022/05/17 13:01:27;;;;;;;6.17;4.23;;;33.00;45.60;;;;;;5090452;28;20237;-68
2022/05/17 13:03:57;;;;;;;5.77;4.53;;;33.10;45.90;;;;;;5082536;28;20202;-68
2022/05/17 13:06:40;;;;;;;8.03;3.97;;;33.10;46.30;;;;;;5095401;28;20221;-68
2022/05/17 13:09:15;;;;;;;8.40;4.83;;;33.10;45.60;;;;;;5068887;28;20194;-67
2022/05/17 13:11:48;;;;;;;7.70;4.23;;;33.20;44.50;;;;;;5077947;28;20228;-67
2022/05/17 13:14:31;;;;;;;6.17;4.47;;;33.20;45.30;;;;;;5080056;28;20209;-67
2022/05/17 13:17:11;;;;;;;7.20;5.00;;;33.20;46.20;;;;;;5079162;28;20197;-67
2022/05/17 13:19:45;;;;;;;5.60;4.60;;;33.20;45.30;;;;;;5091374;28;20231;-67
2022/05/17 13:22:17;;;;;;;6.67;4.23;;;33.20;44.60;;;;;;5065696;28;20222;-67
2022/05/17 13:24:48;;;;;;;9.00;4.60;;;33.10;45.50;;;;;;5079481;28;20198;-67